Time;durP1;ratioP1;P1;durP2;ratioP2;P2;SDS_P1;SDS_P2;PMS_P1;PMS_P2;Temp;Humidity;BMP_temperature;BMP_pressure;BME280_temperature;BME280_humidity;BME280_pressure;Samples;Min_cycle;Max_cycle;Signal;HPM_P1;HPM_P2
2022/08/02 00:01:35;;;;;;;1.42;1.20;;;;;;;;;;4977326;28;20409;-70
2022/08/02 00:04:01;;;;;;;4.05;1.38;;;;;;;;;;4977295;28;20045;-70
2022/08/02 00:06:27;;;;;;;2.30;1.33;;;;;;;;;;4977465;28;20495;-71
2022/08/02 00:08:53;;;;;;;2.15;1.10;;;;;;;;;;4977485;28;20477;-71
2022/08/02 00:11:19;;;;;;;3.67;1.48;;;;;;;;;;4977160;28;20401;-72
2022/08/02 00:13:45;;;;;;;2.15;1.30;;;;;;;;;;4976426;28;20023;-72
2022/08/02 00:16:12;;;;;;;2.25;1.55;;;;;;;;;;4977120;28;20378;-70
2022/08/02 00:18:38;;;;;;;2.72;1.48;;;;;;;;;;4977098;28;20393;-72
2022/08/02 00:21:04;;;;;;;3.45;1.67;;;;;;;;;;4977025;28;20041;-72
2022/08/02 00:23:30;;;;;;;3.00;1.77;;;;;;;;;;4976980;28;20106;-70
2022/08/02 00:25:56;;;;;;;1.27;1.17;;;;;;;;;;4977378;28;20448;-72
2022/08/02 00:28:23;;;;;;;3.63;1.42;;;;;;;;;;4959550;28;20023;-71
2022/08/02 00:30:49;;;;;;;3.13;1.30;;;;;;;;;;4977406;28;20023;-70
2022/08/02 00:33:15;;;;;;;1.63;1.40;;;;;;;;;;4976813;28;20022;-71
2022/08/02 00:35:41;;;;;;;2.63;1.45;;;;;;;;;;4976768;28;20031;-71
2022/08/02 00:38:07;;;;;;;1.55;1.33;;;;;;;;;;4976776;28;20106;-71
2022/08/02 00:40:33;;;;;;;2.55;1.63;;;;;;;;;;4976942;28;20392;-71
2022/08/02 00:43:06;;;;;;;2.88;1.35;;;;;;;;;;4976636;28;20497;-71
2022/08/02 00:45:33;;;;;;;3.15;1.40;;;;;;;;;;4976814;28;20483;-70
2022/08/02 00:48:00;;;;;;;3.05;1.30;;;;;;;;;;4976858;28;20023;-71
2022/08/02 00:50:26;;;;;;;2.78;1.60;;;;;;;;;;4976513;28;20082;-71
2022/08/02 00:52:52;;;;;;;2.90;1.38;;;;;;;;;;4976720;28;20093;-72
2022/08/02 00:55:18;;;;;;;2.60;1.80;;;;;;;;;;4976418;28;20512;-71
2022/08/02 00:57:44;;;;;;;2.28;1.45;;;;;;;;;;4976369;28;20030;-71
2022/08/02 01:00:11;;;;;;;3.90;1.65;;;;;;;;;;4976249;28;20034;-71
2022/08/02 01:02:37;;;;;;;3.67;1.60;;;;;;;;;;4976323;28;20031;-72
2022/08/02 01:05:03;;;;;;;1.85;1.40;;;;;;;;;;4975996;28;20394;-70
2022/08/02 01:07:29;;;;;;;1.60;1.40;;;;;;;;;;4976486;28;20026;-71
2022/08/02 01:09:55;;;;;;;2.40;1.50;;;;;;;;;;4976202;28;20023;-72
2022/08/02 01:12:21;;;;;;;3.95;1.70;;;;;;;;;;4976084;28;20098;-71
2022/08/02 01:14:49;;;;;;;2.25;1.52;;;;;;;;;;4958666;28;20469;-71
2022/08/02 01:17:18;;;;;;;3.35;1.80;;;;;;;;;;4976019;28;20023;-72
2022/08/02 01:19:47;;;;;;;3.00;1.40;;;;;;;;;;4958654;28;20407;-71
2022/08/02 01:22:29;;;;;;;2.92;1.60;;;;;;;;;;4975878;28;20027;-70
2022/08/02 01:25:03;;;;;;;3.67;2.03;;;;;;;;;;4975928;28;20058;-71
2022/08/02 01:27:39;;;;;;;2.50;1.75;;;;;;;;;;4976125;28;20038;-71
2022/08/02 01:30:06;;;;;;;3.88;1.60;;;;;;;;;;4976856;28;20063;-70
2022/08/02 01:32:35;;;;;;;2.90;1.90;;;;;;;;;;4975763;28;20129;-71
2022/08/02 01:35:12;;;;;;;3.08;2.00;;;;;;;;;;4975635;28;20393;-71
2022/08/02 01:37:41;;;;;;;2.60;1.60;;;;;;;;;;4958044;28;20117;-71
2022/08/02 01:40:12;;;;;;;2.58;1.88;;;;;;;;;;4975555;28;20034;-70
2022/08/02 01:42:44;;;;;;;3.65;1.88;;;;;;;;;;4975777;28;20035;-70
2022/08/02 01:45:12;;;;;;;3.25;1.90;;;;;;;;;;4975978;28;20114;-71
2022/08/02 01:47:39;;;;;;;2.17;1.83;;;;;;;;;;4975927;28;20027;-70
2022/08/02 01:50:05;;;;;;;2.38;1.65;;;;;;;;;;4975677;28;20381;-70
2022/08/02 01:52:33;;;;;;;3.88;1.60;;;;;;;;;;4975895;28;20035;-71
2022/08/02 01:55:07;;;;;;;3.83;2.00;;;;;;;;;;4975243;28;20023;-72
2022/08/02 01:57:36;;;;;;;1.98;1.45;;;;;;;;;;4957893;28;20446;-71
2022/08/02 02:00:03;;;;;;;3.13;1.73;;;;;;;;;;4975147;28;20022;-72
2022/08/02 02:02:30;;;;;;;2.58;1.83;;;;;;;;;;4975377;28;20031;-71
2022/08/02 02:04:57;;;;;;;3.03;1.80;;;;;;;;;;4974842;28;20508;-70
2022/08/02 02:07:24;;;;;;;4.22;2.22;;;;;;;;;;4957732;28;20038;-72
2022/08/02 02:09:50;;;;;;;3.03;1.75;;;;;;;;;;4975628;28;20026;-71
2022/08/02 02:12:17;;;;;;;2.17;1.80;;;;;;;;;;4975605;28;20031;-71
2022/08/02 02:14:43;;;;;;;2.92;1.90;;;;;;;;;;4975206;28;20436;-71
2022/08/02 02:17:10;;;;;;;3.67;1.40;;;;;;;;;;4974934;28;20027;-71
2022/08/02 02:19:37;;;;;;;3.05;1.90;;;;;;;;;;4974914;28;20105;-71
2022/08/02 02:22:03;;;;;;;2.30;1.75;;;;;;;;;;4975139;28;20027;-71
2022/08/02 02:24:29;;;;;;;4.50;1.88;;;;;;;;;;4974737;28;20037;-70
2022/08/02 02:26:56;;;;;;;2.08;1.60;;;;;;;;;;4974775;28;20497;-71
2022/08/02 02:29:24;;;;;;;2.90;2.00;;;;;;;;;;4974746;28;20022;-72
2022/08/02 02:31:52;;;;;;;3.45;1.60;;;;;;;;;;4975181;28;20038;-70
2022/08/02 02:34:24;;;;;;;2.08;1.67;;;;;;;;;;4974925;28;20042;-71
2022/08/02 02:36:51;;;;;;;5.95;2.08;;;;;;;;;;4974375;28;20478;-70
2022/08/02 02:39:19;;;;;;;3.28;1.60;;;;;;;;;;4957309;28;20027;-70
2022/08/02 02:41:47;;;;;;;2.55;1.63;;;;;;;;;;4974613;28;20023;-72
2022/08/02 02:44:16;;;;;;;2.72;1.45;;;;;;;;;;4974771;28;20015;-71
2022/08/02 02:46:42;;;;;;;1.40;1.27;;;;;;;;;;4974791;28;20054;-70
2022/08/02 02:49:10;;;;;;;2.25;1.65;;;;;;;;;;4975041;28;20030;-71
2022/08/02 02:51:39;;;;;;;3.58;1.70;;;;;;;;;;4974730;28;20027;-70
2022/08/02 02:54:05;;;;;;;4.90;1.70;;;;;;;;;;4974728;28;20019;-71
2022/08/02 02:56:31;;;;;;;1.88;1.58;;;;;;;;;;4974398;28;20042;-70
2022/08/02 02:58:59;;;;;;;2.58;1.65;;;;;;;;;;4957040;28;20081;-71
2022/08/02 03:01:29;;;;;;;2.92;1.92;;;;;;;;;;4974861;28;20382;-72
2022/08/02 03:03:56;;;;;;;2.75;1.58;;;;;;;;;;4974174;28;20094;-70
2022/08/02 03:06:22;;;;;;;3.47;1.55;;;;;;;;;;4974606;28;20161;-70
2022/08/02 03:08:48;;;;;;;3.72;1.83;;;;;;;;;;4974630;28;20062;-72
2022/08/02 03:11:15;;;;;;;6.35;1.92;;;;;;;;;;4974780;28;20027;-71
2022/08/02 03:13:41;;;;;;;3.03;1.77;;;;;;;;;;4974226;28;20047;-71
2022/08/02 03:16:07;;;;;;;2.58;1.73;;;;;;;;;;4974491;28;20105;-72
2022/08/02 03:18:34;;;;;;;4.07;2.25;;;;;;;;;;4974221;28;20120;-70
2022/08/02 03:21:05;;;;;;;2.92;2.00;;;;;;;;;;4974460;28;20035;-70
2022/08/02 03:23:31;;;;;;;4.07;1.90;;;;;;;;;;4974179;28;20176;-69
2022/08/02 03:25:57;;;;;;;4.93;1.98;;;;;;;;;;4974055;28;20031;-72
2022/08/02 03:28:23;;;;;;;2.25;1.90;;;;;;;;;;4974110;28;20026;-71
2022/08/02 03:30:49;;;;;;;2.88;1.90;;;;;;;;;;4957260;28;20023;-70
2022/08/02 03:33:16;;;;;;;3.85;1.85;;;;;;;;;;4974063;28;20023;-70
2022/08/02 03:35:43;;;;;;;3.53;2.05;;;;;;;;;;4956754;28;20485;-72
2022/08/02 03:38:10;;;;;;;2.85;1.90;;;;;;;;;;4956673;28;20051;-71
2022/08/02 03:40:37;;;;;;;2.85;2.30;;;;;;;;;;4974511;28;20070;-72
2022/08/02 03:43:03;;;;;;;2.85;2.10;;;;;;;;;;4974228;28;20023;-71
2022/08/02 03:45:30;;;;;;;4.05;2.20;;;;;;;;;;4974133;28;20035;-70
2022/08/02 03:47:56;;;;;;;3.60;2.10;;;;;;;;;;4975284;28;20106;-70
2022/08/02 03:50:22;;;;;;;2.90;2.20;;;;;;;;;;4977575;28;20082;-71
2022/08/02 03:52:48;;;;;;;4.80;2.60;;;;;;;;;;4977564;28;20046;-71
2022/08/02 03:55:14;;;;;;;5.57;2.58;;;;;;;;;;4960149;28;20027;-70
2022/08/02 03:57:41;;;;;;;2.80;2.10;;;;;;;;;;4977471;28;20030;-70
2022/08/02 04:00:08;;;;;;;3.63;2.38;;;;;;;;;;4977568;28;20041;-70
2022/08/02 04:02:35;;;;;;;3.70;2.28;;;;;;;;;;4977413;28;20027;-71
2022/08/02 04:05:01;;;;;;;4.85;2.47;;;;;;;;;;4959771;28;20505;-71
2022/08/02 04:07:27;;;;;;;3.10;2.17;;;;;;;;;;4977620;28;20032;-71
2022/08/02 04:09:53;;;;;;;4.28;2.13;;;;;;;;;;4977537;28;20027;-71
2022/08/02 04:12:19;;;;;;;3.78;1.90;;;;;;;;;;4977210;28;20033;-72
2022/08/02 04:14:45;;;;;;;3.78;2.20;;;;;;;;;;4977430;28;20039;-70
2022/08/02 04:17:12;;;;;;;3.13;2.08;;;;;;;;;;4959711;28;20023;-70
2022/08/02 04:19:53;;;;;;;2.92;1.92;;;;;;;;;;4977334;28;20105;-70
2022/08/02 04:22:23;;;;;;;2.17;1.80;;;;;;;;;;4977289;28;20034;-70
2022/08/02 04:24:51;;;;;;;5.50;2.38;;;;;;;;;;4976891;28;20039;-70
2022/08/02 04:27:19;;;;;;;4.00;2.08;;;;;;;;;;4977170;28;20385;-71
2022/08/02 04:29:46;;;;;;;3.03;1.65;;;;;;;;;;4976917;28;20027;-70
2022/08/02 04:32:12;;;;;;;5.00;2.25;;;;;;;;;;4977340;28;20057;-71
2022/08/02 04:34:38;;;;;;;3.22;1.98;;;;;;;;;;4976854;28;20397;-71
2022/08/02 04:37:05;;;;;;;2.85;2.00;;;;;;;;;;4976783;28;20023;-71
2022/08/02 04:39:31;;;;;;;2.53;1.98;;;;;;;;;;4977034;28;20026;-69
2022/08/02 04:41:57;;;;;;;2.60;2.30;;;;;;;;;;4977199;28;20038;-70
2022/08/02 04:44:23;;;;;;;3.05;1.85;;;;;;;;;;4976609;28;20037;-70
2022/08/02 04:46:50;;;;;;;3.60;2.40;;;;;;;;;;4976600;28;20489;-71
2022/08/02 04:49:16;;;;;;;7.82;2.72;;;;;;;;;;4976591;28;20474;-70
2022/08/02 04:51:43;;;;;;;2.92;2.03;;;;;;;;;;4976509;28;20109;-71
2022/08/02 04:54:09;;;;;;;5.35;2.20;;;;;;;;;;4976715;28;20035;-71
2022/08/02 04:56:35;;;;;;;4.00;2.00;;;;;;;;;;4976448;28;20027;-71
2022/08/02 04:59:01;;;;;;;4.05;1.90;;;;;;;;;;4976054;28;20026;-71
2022/08/02 05:01:27;;;;;;;3.53;1.90;;;;;;;;;;4976479;28;20117;-70
2022/08/02 05:03:53;;;;;;;3.28;2.08;;;;;;;;;;4976350;28;20051;-71
2022/08/02 05:06:19;;;;;;;4.78;2.03;;;;;;;;;;4976510;28;20377;-71
2022/08/02 05:08:46;;;;;;;3.83;2.00;;;;;;;;;;4976164;28;20023;-71
2022/08/02 05:11:12;;;;;;;4.45;2.17;;;;;;;;;;4976682;28;20413;-71
2022/08/02 05:13:40;;;;;;;3.30;2.00;;;;;;;;;;4976023;28;20038;-71
2022/08/02 05:16:06;;;;;;;5.10;2.33;;;;;;;;;;4976031;28;20027;-71
2022/08/02 05:18:32;;;;;;;2.67;1.90;;;;;;;;;;4976001;28;20053;-72
2022/08/02 05:20:58;;;;;;;3.25;2.00;;;;;;;;;;4975953;28;20023;-71
2022/08/02 05:23:24;;;;;;;3.42;1.88;;;;;;;;;;4975879;28;20511;-70
2022/08/02 05:25:50;;;;;;;3.10;1.95;;;;;;;;;;4975786;28;20371;-72
2022/08/02 05:28:16;;;;;;;2.55;1.77;;;;;;;;;;4975810;28;20090;-71
2022/08/02 05:30:42;;;;;;;3.13;2.20;;;;;;;;;;4976304;28;20049;-70
2022/08/02 05:33:08;;;;;;;3.88;2.25;;;;;;;;;;4975724;28;20520;-69
2022/08/02 05:35:34;;;;;;;3.72;2.10;;;;;;;;;;4975948;28;20035;-71
2022/08/02 05:38:00;;;;;;;3.00;2.08;;;;;;;;;;4975955;28;20051;-71
2022/08/02 05:40:26;;;;;;;5.45;2.72;;;;;;;;;;4976154;28;20034;-70
2022/08/02 05:42:53;;;;;;;5.35;2.70;;;;;;;;;;4975599;28;20031;-71
2022/08/02 05:45:19;;;;;;;3.08;2.08;;;;;;;;;;4975412;28;20027;-70
2022/08/02 05:47:45;;;;;;;8.93;3.60;;;;;;;;;;4975746;28;20015;-70
2022/08/02 05:50:11;;;;;;;10.07;2.95;;;;;;;;;;4975705;28;20030;-70
2022/08/02 05:52:50;;;;;;;3.38;2.47;;;;;;;;;;4975374;28;20034;-71
2022/08/02 05:55:17;;;;;;;10.32;2.63;;;;;;;;;;4975584;28;20150;-71
2022/08/02 05:57:56;;;;;;;7.30;2.38;;;;;;;;;;4975352;28;20112;-72
2022/08/02 06:00:23;;;;;;;3.38;2.35;;;;;;;;;;4975230;28;20061;-70
2022/08/02 06:02:52;;;;;;;2.83;2.45;;;;;;;;;;4975779;28;20027;-71
2022/08/02 06:05:21;;;;;;;4.93;2.28;;;;;;;;;;4974959;28;20185;-71
2022/08/02 06:07:48;;;;;;;3.20;2.05;;;;;;;;;;4975386;28;20054;-72
2022/08/02 06:10:15;;;;;;;11.27;2.35;;;;;;;;;;4975347;28;20027;-71
2022/08/02 06:12:44;;;;;;;5.35;2.38;;;;;;;;;;4974590;28;20027;-71
2022/08/02 06:15:13;;;;;;;5.55;2.30;;;;;;;;;;4975282;28;20150;-72
2022/08/02 06:17:40;;;;;;;6.30;2.40;;;;;;;;;;4975215;28;20388;-72
2022/08/02 06:20:06;;;;;;;3.85;2.30;;;;;;;;;;4974926;28;20035;-71
2022/08/02 06:22:33;;;;;;;3.35;2.50;;;;;;;;;;4974873;28;20030;-70
2022/08/02 06:25:00;;;;;;;3.35;2.30;;;;;;;;;;4974692;28;20402;-72
2022/08/02 06:27:27;;;;;;;3.60;2.40;;;;;;;;;;4974797;28;20027;-70
2022/08/02 06:29:54;;;;;;;3.72;2.22;;;;;;;;;;4975055;28;20050;-71
2022/08/02 06:32:20;;;;;;;5.82;3.00;;;;;;;;;;4975229;28;20030;-72
2022/08/02 06:34:46;;;;;;;4.82;2.78;;;;;;;;;;4974670;28;20034;-70
2022/08/02 06:37:12;;;;;;;4.38;3.28;;;;;;;;;;4974708;28;20082;-72
2022/08/02 06:39:45;;;;;;;4.78;3.08;;;;;;;;;;4974619;28;20044;-72
2022/08/02 06:42:12;;;;;;;2.83;2.50;;;;;;;;;;4957227;28;20409;-70
2022/08/02 06:44:38;;;;;;;2.65;2.30;;;;;;;;;;4974480;28;20077;-71
2022/08/02 06:47:04;;;;;;;3.97;2.30;;;;;;;;;;4974520;28;20110;-71
2022/08/02 06:49:30;;;;;;;4.82;2.50;;;;;;;;;;4974756;28;20031;-71
2022/08/02 06:51:57;;;;;;;2.80;2.50;;;;;;;;;;4974434;28;20045;-72
2022/08/02 06:54:23;;;;;;;3.33;2.20;;;;;;;;;;4957067;28;20556;-71
2022/08/02 06:56:49;;;;;;;4.07;2.10;;;;;;;;;;4974505;28;20167;-70
2022/08/02 06:59:15;;;;;;;4.80;2.75;;;;;;;;;;4974934;28;20023;-71
2022/08/02 07:01:41;;;;;;;2.10;1.90;;;;;;;;;;4974314;28;20026;-71
2022/08/02 07:04:07;;;;;;;3.67;2.03;;;;;;;;;;4953686;29;20055;-72
2022/08/02 07:06:33;;;;;;;3.92;2.83;;;;;;;;;;4953685;29;20486;-72
2022/08/02 07:08:59;;;;;;;4.43;2.45;;;;;;;;;;4955326;29;20023;-71
2022/08/02 07:11:25;;;;;;;5.57;2.60;;;;;;;;;;4955049;29;20454;-70
2022/08/02 07:13:51;;;;;;;3.67;2.40;;;;;;;;;;4954968;29;20019;-72
2022/08/02 07:16:17;;;;;;;2.88;2.42;;;;;;;;;;4954970;29;20031;-72
2022/08/02 07:18:43;;;;;;;2.33;2.13;;;;;;;;;;4954964;29;20027;-71
2022/08/02 07:21:09;;;;;;;2.90;2.20;;;;;;;;;;4955266;29;20397;-71
2022/08/02 07:23:35;;;;;;;3.00;2.70;;;;;;;;;;4957347;28;20034;-71
2022/08/02 07:26:01;;;;;;;4.15;2.20;;;;;;;;;;4958656;29;20482;-71
2022/08/02 07:28:27;;;;;;;2.67;2.17;;;;;;;;;;4958712;29;20086;-72
2022/08/02 07:30:53;;;;;;;1.80;1.70;;;;;;;;;;4959515;29;20111;-71
2022/08/02 07:33:19;;;;;;;2.35;1.65;;;;;;;;;;4958916;29;20063;-72
2022/08/02 07:35:45;;;;;;;1.83;1.70;;;;;;;;;;4957350;29;20453;-70
2022/08/02 07:38:11;;;;;;;2.55;1.60;;;;;;;;;;4958806;29;20390;-72
2022/08/02 07:40:37;;;;;;;2.22;1.27;;;;;;;;;;4958476;29;20046;-71
2022/08/02 07:43:03;;;;;;;1.05;1.00;;;;;;;;;;4957236;29;20058;-71
2022/08/02 07:45:30;;;;;;;1.08;0.95;;;;;;;;;;4958353;29;20035;-72
2022/08/02 07:47:56;;;;;;;4.30;1.40;;;;;;;;;;4958457;29;20393;-72
2022/08/02 07:50:22;;;;;;;3.72;1.10;;;;;;;;;;4958312;29;20023;-72
2022/08/02 07:52:48;;;;;;;2.25;1.23;;;;;;;;;;4958561;29;20161;-72
2022/08/02 07:55:16;;;;;;;10.90;1.95;;;;;;;;;;4957034;29;20513;-70
2022/08/02 07:57:42;;;;;;;2.03;1.33;;;;;;;;;;4958553;28;20482;-72
2022/08/02 08:00:09;;;;;;;1.25;1.15;;;;;;;;;;4958296;29;20103;-71
2022/08/02 08:02:35;;;;;;;1.77;1.30;;;;;;;;;;4958724;29;20106;-72
2022/08/02 08:05:01;;;;;;;2.13;1.40;;;;;;;;;;4970288;28;20047;-72
2022/08/02 08:07:27;;;;;;;2.50;1.70;;;;;;;;;;4977361;28;20393;-71
2022/08/02 08:09:53;;;;;;;3.60;1.80;;;;;;;;;;4977280;28;20481;-71
2022/08/02 08:12:20;;;;;;;5.38;2.13;;;;;;;;;;4977128;28;20031;-71
2022/08/02 08:14:46;;;;;;;1.67;1.30;;;;;;;;;;4977672;28;20027;-71
2022/08/02 08:17:12;;;;;;;2.35;1.40;;;;;;;;;;4977141;28;20034;-72
2022/08/02 08:19:38;;;;;;;2.35;1.40;;;;;;;;;;4977345;28;20053;-71
2022/08/02 08:22:04;;;;;;;2.45;1.40;;;;;;;;;;4959719;28;20121;-72
2022/08/02 08:24:30;;;;;;;2.55;1.50;;;;;;;;;;4977197;28;20022;-72
2022/08/02 08:26:56;;;;;;;2.13;1.48;;;;;;;;;;4976926;28;20393;-71
2022/08/02 08:29:23;;;;;;;2.83;1.48;;;;;;;;;;4977218;28;20053;-71
2022/08/02 08:31:49;;;;;;;3.00;1.40;;;;;;;;;;4977639;28;20030;-72
2022/08/02 08:34:15;;;;;;;2.60;1.80;;;;;;;;;;4958543;28;20393;-71
2022/08/02 08:36:41;;;;;;;3.40;1.63;;;;;;;;;;4959622;28;20039;-71
2022/08/02 08:39:08;;;;;;;2.22;1.80;;;;;;;;;;4976704;28;20035;-71
2022/08/02 08:41:35;;;;;;;2.30;1.70;;;;;;;;;;4977008;28;20030;-72
2022/08/02 08:44:01;;;;;;;3.67;1.80;;;;;;;;;;4976703;28;20105;-70
2022/08/02 08:46:33;;;;;;;3.70;1.42;;;;;;;;;;4976622;28;20118;-73
2022/08/02 08:49:21;;;;;;;3.88;1.77;;;;;;;;;;4959330;28;20026;-72
2022/08/02 08:51:49;;;;;;;6.78;1.77;;;;;;;;;;4977418;28;20030;-71
2022/08/02 08:54:16;;;;;;;3.30;1.60;;;;;;;;;;4977030;28;20015;-72
2022/08/02 08:56:43;;;;;;;2.75;1.35;;;;;;;;;;4976493;28;20035;-72
2022/08/02 08:59:09;;;;;;;1.77;1.52;;;;;;;;;;4976385;28;20110;-71
2022/08/02 09:01:35;;;;;;;1.50;1.40;;;;;;;;;;4976606;28;20540;-71
2022/08/02 09:04:02;;;;;;;2.42;1.58;;;;;;;;;;4976105;28;20473;-71
2022/08/02 09:06:28;;;;;;;3.05;1.52;;;;;;;;;;4958836;28;20394;-71
2022/08/02 09:08:54;;;;;;;3.00;1.20;;;;;;;;;;4976219;28;20034;-71
2022/08/02 09:11:24;;;;;;;2.03;1.40;;;;;;;;;;4976184;28;20023;-72
2022/08/02 09:13:54;;;;;;;2.70;1.67;;;;;;;;;;4976409;28;20530;-71
2022/08/02 09:16:29;;;;;;;3.17;1.30;;;;;;;;;;4976150;28;20030;-71
2022/08/02 09:18:55;;;;;;;2.40;1.60;;;;;;;;;;4976005;28;20106;-71
2022/08/02 09:21:21;;;;;;;2.72;1.45;;;;;;;;;;4976300;28;20031;-72
2022/08/02 09:23:48;;;;;;;3.95;1.70;;;;;;;;;;4975964;28;20045;-72
2022/08/02 09:26:15;;;;;;;1.42;1.30;;;;;;;;;;4976433;28;20069;-71
2022/08/02 09:28:42;;;;;;;2.05;1.50;;;;;;;;;;4976118;28;20030;-71
2022/08/02 09:31:11;;;;;;;3.67;1.52;;;;;;;;;;4976508;28;20433;-71
2022/08/02 09:33:38;;;;;;;1.60;1.50;;;;;;;;;;4958403;28;20110;-72
2022/08/02 09:36:05;;;;;;;2.45;1.50;;;;;;;;;;4975777;28;20031;-71
2022/08/02 09:38:32;;;;;;;3.13;1.55;;;;;;;;;;4975682;28;20038;-72
2022/08/02 09:40:58;;;;;;;2.03;1.33;;;;;;;;;;4975652;28;20170;-72
2022/08/02 09:43:38;;;;;;;2.58;1.40;;;;;;;;;;4975901;28;20031;-71
2022/08/02 09:46:31;;;;;;;2.97;1.45;;;;;;;;;;4975356;28;20113;-71
2022/08/02 09:48:57;;;;;;;3.83;1.45;;;;;;;;;;4973065;28;20038;-70
2022/08/02 09:51:24;;;;;;;2.28;1.38;;;;;;;;;;4975461;28;20030;-72
2022/08/02 09:53:52;;;;;;;1.95;1.40;;;;;;;;;;4975419;28;20075;-72
2022/08/02 09:56:18;;;;;;;1.40;1.30;;;;;;;;;;4975642;28;20034;-72
2022/08/02 09:58:44;;;;;;;2.63;1.35;;;;;;;;;;4975811;28;20437;-71
2022/08/02 10:01:11;;;;;;;1.10;1.00;;;;;;;;;;4975207;28;20058;-71
2022/08/02 10:03:36;;;;;;;1.20;1.10;;;;;;;;;;4975241;28;20113;-72
2022/08/02 10:06:03;;;;;;;4.75;1.27;;;;;;;;;;4975476;28;20106;-72
2022/08/02 10:08:31;;;;;;;2.08;1.38;;;;;;;;;;4975141;28;20464;-71
2022/08/02 10:11:02;;;;;;;1.48;1.05;;;;;;;;;;4975344;28;20086;-72
2022/08/02 10:13:28;;;;;;;1.92;1.20;;;;;;;;;;4975627;28;20023;-71
2022/08/02 10:15:55;;;;;;;1.20;1.10;;;;;;;;;;4974996;28;20031;-72
2022/08/02 10:18:22;;;;;;;3.80;1.00;;;;;;;;;;4974954;28;20512;-72
2022/08/02 10:20:48;;;;;;;1.45;1.27;;;;;;;;;;4974907;28;20035;-72
2022/08/02 10:23:15;;;;;;;1.85;1.23;;;;;;;;;;4975139;28;20034;-71
2022/08/02 10:25:42;;;;;;;1.25;1.08;;;;;;;;;;4974784;28;20122;-72
2022/08/02 10:28:08;;;;;;;1.25;1.13;;;;;;;;;;4975356;28;20027;-72
2022/08/02 10:30:38;;;;;;;1.67;1.50;;;;;;;;;;4975090;28;20512;-71
2022/08/02 10:33:07;;;;;;;2.80;1.50;;;;;;;;;;4975803;28;20030;-71
2022/08/02 10:35:35;;;;;;;2.47;1.30;;;;;;;;;;4974730;28;20500;-71
2022/08/02 10:38:02;;;;;;;3.35;1.20;;;;;;;;;;4974680;28;20030;-72
2022/08/02 10:40:47;;;;;;;1.05;0.95;;;;;;;;;;4974652;28;20034;-71
2022/08/02 10:43:33;;;;;;;3.22;1.48;;;;;;;;;;4975158;28;20026;-70
2022/08/02 10:46:18;;;;;;;2.20;1.40;;;;;;;;;;4974434;28;20034;-71
2022/08/02 10:49:02;;;;;;;1.90;1.25;;;;;;;;;;4974761;28;20508;-71
2022/08/02 10:51:46;;;;;;;2.60;1.17;;;;;;;;;;4974758;28;20034;-72
2022/08/02 10:54:19;;;;;;;1.50;1.10;;;;;;;;;;4974448;28;20037;-72
2022/08/02 10:56:45;;;;;;;1.50;1.10;;;;;;;;;;4974351;28;20486;-71
2022/08/02 10:59:31;;;;;;;1.75;1.33;;;;;;;;;;4974175;28;20034;-72
2022/08/02 11:02:01;;;;;;;3.42;1.40;;;;;;;;;;4974658;28;20451;-71
2022/08/02 11:04:38;;;;;;;2.28;1.40;;;;;;;;;;4974212;28;20417;-71
2022/08/02 11:07:30;;;;;;;2.03;1.20;;;;;;;;;;4974351;28;20528;-71
2022/08/02 11:09:58;;;;;;;1.10;1.00;;;;;;;;;;4974891;28;20031;-72
2022/08/02 11:12:24;;;;;;;1.92;1.33;;;;;;;;;;4956934;28;20379;-71
2022/08/02 11:15:02;;;;;;;1.48;1.23;;;;;;;;;;4974321;28;20449;-71
2022/08/02 11:17:48;;;;;;;3.20;1.47;;;;;;;;;;4974266;28;20023;-70
2022/08/02 11:20:16;;;;;;;3.72;1.20;;;;;;;;;;4974397;28;20540;-71
2022/08/02 11:22:43;;;;;;;1.70;1.38;;;;;;;;;;4974753;28;20030;-71
2022/08/02 11:25:24;;;;;;;2.70;1.30;;;;;;;;;;4974078;28;20031;-72
2022/08/02 11:27:54;;;;;;;2.97;1.40;;;;;;;;;;4974469;28;20026;-71
2022/08/02 11:30:20;;;;;;;3.90;1.38;;;;;;;;;;4974116;28;20110;-71
2022/08/02 11:32:47;;;;;;;2.38;1.38;;;;;;;;;;4974884;28;20019;-71
2022/08/02 11:35:14;;;;;;;1.40;1.30;;;;;;;;;;4974100;28;20059;-71
2022/08/02 11:37:42;;;;;;;2.03;1.27;;;;;;;;;;4974402;28;20034;-72
2022/08/02 11:40:09;;;;;;;1.52;1.42;;;;;;;;;;4973888;28;20113;-71
2022/08/02 11:42:36;;;;;;;2.40;1.48;;;;;;;;;;4973972;28;20552;-71
2022/08/02 11:45:03;;;;;;;1.52;1.42;;;;;;;;;;4973971;28;20023;-72
2022/08/02 11:47:30;;;;;;;1.40;1.27;;;;;;;;;;4974007;28;20517;-72
2022/08/02 11:50:06;;;;;;;4.38;1.58;;;;;;;;;;4973987;28;20107;-71
2022/08/02 11:52:33;;;;;;;3.33;1.20;;;;;;;;;;4973946;28;20023;-71
2022/08/02 11:54:59;;;;;;;2.97;1.15;;;;;;;;;;4974194;28;20106;-71
2022/08/02 11:57:25;;;;;;;4.35;1.67;;;;;;;;;;4973918;28;20400;-71
2022/08/02 11:59:52;;;;;;;3.38;1.60;;;;;;;;;;4973791;28;20022;-71
2022/08/02 12:02:19;;;;;;;2.95;1.50;;;;;;;;;;4974126;28;20031;-71
2022/08/02 12:04:59;;;;;;;3.17;1.42;;;;;;;;;;4973545;28;20050;-71
2022/08/02 12:07:35;;;;;;;3.50;1.42;;;;;;;;;;4974159;28;20031;-71
2022/08/02 12:10:03;;;;;;;2.15;1.38;;;;;;;;;;4975805;28;20475;-71
2022/08/02 12:12:29;;;;;;;1.83;1.50;;;;;;;;;;4977250;28;20027;-72
2022/08/02 12:14:55;;;;;;;4.00;1.25;;;;;;;;;;4977292;28;20029;-70
2022/08/02 12:20:10;;;;;;;1.55;1.30;;;;;;;;;;4976892;28;20042;-71
2022/08/02 12:22:37;;;;;;;2.47;1.40;;;;;;;;;;4977401;28;20438;-71
2022/08/02 12:25:23;;;;;;;4.82;1.55;;;;;;;;;;4977235;28;20073;-71
2022/08/02 12:27:49;;;;;;;2.47;1.58;;;;;;;;;;4977250;28;20074;-72
2022/08/02 12:30:18;;;;;;;2.55;1.30;;;;;;;;;;4977203;28;20031;-71
2022/08/02 12:32:45;;;;;;;1.88;1.27;;;;;;;;;;4977427;28;20086;-71
2022/08/02 12:35:13;;;;;;;1.85;1.38;;;;;;;;;;4976850;28;20027;-70
2022/08/02 12:37:41;;;;;;;1.65;1.35;;;;;;;;;;4976804;28;20037;-72
2022/08/02 12:40:24;;;;;;;1.55;1.33;;;;;;;;;;4976838;28;20052;-72
2022/08/02 12:42:51;;;;;;;1.65;1.20;;;;;;;;;;4976775;28;20027;-71
2022/08/02 12:45:17;;;;;;;3.47;1.20;;;;;;;;;;4976584;28;20078;-72
2022/08/02 12:47:51;;;;;;;2.47;1.23;;;;;;;;;;4976691;28;20035;-71
2022/08/02 12:50:21;;;;;;;2.30;1.45;;;;;;;;;;4977161;28;20018;-71
2022/08/02 12:52:48;;;;;;;3.53;1.40;;;;;;;;;;4976856;28;20042;-71
2022/08/02 12:55:18;;;;;;;1.50;1.20;;;;;;;;;;4976764;28;20054;-71
2022/08/02 12:57:54;;;;;;;5.55;1.13;;;;;;;;;;4976698;28;20030;-71
2022/08/02 13:00:25;;;;;;;3.17;1.20;;;;;;;;;;4976360;28;20058;-71
2022/08/02 13:02:51;;;;;;;2.17;1.17;;;;;;;;;;4976706;28;20110;-72
2022/08/02 13:05:17;;;;;;;1.67;1.45;;;;;;;;;;4976126;28;20039;-72
2022/08/02 13:07:43;;;;;;;1.98;1.30;;;;;;;;;;4976602;28;20035;-70
2022/08/02 13:10:09;;;;;;;2.85;1.30;;;;;;;;;;4976480;28;20477;-72
2022/08/02 13:12:36;;;;;;;1.77;1.30;;;;;;;;;;4976204;28;20030;-71
2022/08/02 13:15:02;;;;;;;2.05;1.60;;;;;;;;;;4959276;28;20027;-72
2022/08/02 13:17:28;;;;;;;1.25;1.13;;;;;;;;;;4976071;28;20045;-71
2022/08/02 13:19:54;;;;;;;1.20;1.10;;;;;;;;;;4975838;28;20033;-72
2022/08/02 13:22:20;;;;;;;4.38;1.40;;;;;;;;;;4975873;28;20060;-71
2022/08/02 13:24:48;;;;;;;1.10;1.00;;;;;;;;;;4976170;28;20031;-71
2022/08/02 13:27:14;;;;;;;3.72;1.45;;;;;;;;;;4975876;28;20417;-71
2022/08/02 13:29:40;;;;;;;2.58;1.33;;;;;;;;;;4975862;28;20077;-72
2022/08/02 13:32:06;;;;;;;2.25;1.15;;;;;;;;;;4959023;28;20031;-72
2022/08/02 13:34:32;;;;;;;2.47;1.30;;;;;;;;;;4975829;28;20589;-71
2022/08/02 13:36:58;;;;;;;1.30;1.05;;;;;;;;;;4975734;28;20027;-71
2022/08/02 13:39:24;;;;;;;2.15;1.30;;;;;;;;;;4975958;28;20023;-70
2022/08/02 13:41:50;;;;;;;2.92;1.50;;;;;;;;;;4975638;28;20412;-71
2022/08/02 13:44:16;;;;;;;2.15;1.20;;;;;;;;;;4975628;28;20019;-72
2022/08/02 13:46:42;;;;;;;1.38;1.27;;;;;;;;;;4975475;28;20027;-72
2022/08/02 13:49:08;;;;;;;1.73;1.10;;;;;;;;;;4975518;28;20493;-71
2022/08/02 13:51:34;;;;;;;3.53;1.45;;;;;;;;;;4975397;28;20037;-71
2022/08/02 13:54:00;;;;;;;3.10;1.20;;;;;;;;;;4975673;28;20019;-72
2022/08/02 13:56:26;;;;;;;1.75;1.13;;;;;;;;;;4975355;28;20390;-71
2022/08/02 13:58:52;;;;;;;5.40;1.30;;;;;;;;;;4975310;28;20027;-72
2022/08/02 14:01:18;;;;;;;4.50;1.42;;;;;;;;;;4975189;28;20548;-71
2022/08/02 14:03:45;;;;;;;5.38;1.90;;;;;;;;;;4975039;28;20027;-71
2022/08/02 14:06:11;;;;;;;4.05;1.30;;;;;;;;;;4957473;28;20412;-72
2022/08/02 14:08:37;;;;;;;2.63;1.20;;;;;;;;;;4975157;28;20054;-71
2022/08/02 14:11:03;;;;;;;3.10;1.42;;;;;;;;;;4975045;28;20023;-71
2022/08/02 14:13:29;;;;;;;1.98;1.25;;;;;;;;;;4957667;28;20026;-73
2022/08/02 14:15:55;;;;;;;2.40;1.10;;;;;;;;;;4975197;28;20023;-72
2022/08/02 14:18:21;;;;;;;1.23;1.13;;;;;;;;;;4974918;28;20022;-72
2022/08/02 14:20:47;;;;;;;1.00;0.90;;;;;;;;;;4975458;28;20041;-72
2022/08/02 14:23:14;;;;;;;3.83;1.63;;;;;;;;;;4974998;28;20027;-72
2022/08/02 14:25:40;;;;;;;2.30;1.42;;;;;;;;;;4975056;28;20042;-72
2022/08/02 14:28:06;;;;;;;3.00;1.25;;;;;;;;;;4974861;28;20019;-72
2022/08/02 14:30:32;;;;;;;1.27;1.17;;;;;;;;;;4974755;28;20027;-72
2022/08/02 14:32:58;;;;;;;2.00;1.20;;;;;;;;;;4974530;28;20062;-71
2022/08/02 14:35:24;;;;;;;4.10;1.20;;;;;;;;;;4974769;28;20037;-72
2022/08/02 14:37:51;;;;;;;2.42;1.17;;;;;;;;;;4974669;28;20019;-72
2022/08/02 14:40:17;;;;;;;3.13;1.05;;;;;;;;;;4975145;28;20417;-71
2022/08/02 14:42:43;;;;;;;1.75;1.13;;;;;;;;;;4974627;28;20027;-71
2022/08/02 14:45:09;;;;;;;1.25;1.00;;;;;;;;;;4974485;28;20366;-72
2022/08/02 14:47:35;;;;;;;1.73;1.27;;;;;;;;;;4974639;28;20070;-72
2022/08/02 14:50:01;;;;;;;2.25;1.35;;;;;;;;;;4974829;28;20102;-71